Portada
METAR-TAF:

METAR-TAF

Aeroports :

Dehradun, Índia

latitud: 30-11-23N, longitud: 78-10-49E, altitud: 558 m

METAR: manca

Hora: 05:24 (23:54 UTC)

Pronòstic

L'informe es va fer fa 12 hores i 54 minuts, a les 11:00 UTC
Pronòstic vàlid del 21 a les 12 UTC al 21 a les 21 UTC
Vent 5 kt del Oest
Visibilitat: 5000 m
Núvols disperses a una alçada de 3000 ft
Cel ennuvolat a una alçada de 8000 ft
calitja
Evolucionant progressivament
l' 21 a les 19 UTC al 21 a les 21 UTC
Vent 2 kt amb direcció variable
Visibilitat: 3000 m
calitja, boirina

TAF: VIDN 211100Z 2112/2121 27005KT 5000 HZ SCT030 BKN080 BECMG 2119/2121 VRB02KT 3000 HZ BR

Observacions i pronòstics meteorològics de més de 4000 aeroports (METAR i TAF).

Les estacions disponibles són els punts grocs i vermells al mapa.

Posi el ratolí al punt desitjat per veure el nom de l'estació.

Feu clic per veure les observacions i els pronòstics meteorològics.

Per canviar el mapa: feu clic els botons verds amb una creu de color negre per apropar; al botó verd amb un guió per allunyar la imatge; o en les fletxes verdes per a mapes adjacents.


METAR-TAF: